sensor_id;sensor_type;location;lat;lon;timestamp;P1;durP1;ratioP1;P2;durP2;ratioP2
8104;SDS011;4095;48.942;9.104;2023-12-28T00:00:41;14.83;;;10.63;;
8104;SDS011;4095;48.942;9.104;2023-12-28T00:03:06;16.17;;;10.47;;
8104;SDS011;4095;48.942;9.104;2023-12-28T00:05:32;14.47;;;10.13;;
8104;SDS011;4095;48.942;9.104;2023-12-28T00:07:57;14.57;;;10.70;;
8104;SDS011;4095;48.942;9.104;2023-12-28T00:10:23;13.83;;;10.23;;
8104;SDS011;4095;48.942;9.104;2023-12-28T00:12:53;14.40;;;10.53;;
8104;SDS011;4095;48.942;9.104;2023-12-28T00:15:19;18.00;;;12.20;;
8104;SDS011;4095;48.942;9.104;2023-12-28T00:17:44;25.70;;;15.40;;
8104;SDS011;4095;48.942;9.104;2023-12-28T00:20:10;25.37;;;14.50;;
8104;SDS011;4095;48.942;9.104;2023-12-28T00:22:37;19.90;;;13.00;;
8104;SDS011;4095;48.942;9.104;2023-12-28T00:25:05;17.27;;;11.63;;
8104;SDS011;4095;48.942;9.104;2023-12-28T00:27:31;16.90;;;11.83;;
8104;SDS011;4095;48.942;9.104;2023-12-28T00:29:59;17.27;;;12.03;;
8104;SDS011;4095;48.942;9.104;2023-12-28T00:32:25;17.57;;;10.73;;
8104;SDS011;4095;48.942;9.104;2023-12-28T00:34:50;18.00;;;12.03;;
8104;SDS011;4095;48.942;9.104;2023-12-28T00:37:16;18.00;;;11.67;;
8104;SDS011;4095;48.942;9.104;2023-12-28T00:39:42;20.10;;;11.97;;
8104;SDS011;4095;48.942;9.104;2023-12-28T00:42:07;18.57;;;11.40;;
8104;SDS011;4095;48.942;9.104;2023-12-28T00:44:33;18.93;;;11.20;;
8104;SDS011;4095;48.942;9.104;2023-12-28T00:46:58;18.83;;;11.30;;
8104;SDS011;4095;48.942;9.104;2023-12-28T00:49:24;16.63;;;11.10;;
8104;SDS011;4095;48.942;9.104;2023-12-28T00:51:50;15.23;;;10.17;;
8104;SDS011;4095;48.942;9.104;2023-12-28T00:54:15;16.57;;;10.67;;
8104;SDS011;4095;48.942;9.104;2023-12-28T00:56:41;14.97;;;10.40;;
8104;SDS011;4095;48.942;9.104;2023-12-28T00:59:06;15.83;;;10.80;;
8104;SDS011;4095;48.942;9.104;2023-12-28T01:01:32;17.57;;;10.57;;
8104;SDS011;4095;48.942;9.104;2023-12-28T01:03:58;16.57;;;10.83;;
8104;SDS011;4095;48.942;9.104;2023-12-28T01:06:23;18.13;;;11.50;;
8104;SDS011;4095;48.942;9.104;2023-12-28T01:08:53;15.43;;;10.67;;
8104;SDS011;4095;48.942;9.104;2023-12-28T01:11:19;15.40;;;10.07;;
8104;SDS011;4095;48.942;9.104;2023-12-28T01:13:45;15.80;;;10.87;;
8104;SDS011;4095;48.942;9.104;2023-12-28T01:16:12;14.43;;;10.13;;
8104;SDS011;4095;48.942;9.104;2023-12-28T01:18:38;14.73;;;10.03;;
8104;SDS011;4095;48.942;9.104;2023-12-28T01:21:04;12.13;;;8.83;;
8104;SDS011;4095;48.942;9.104;2023-12-28T01:23:31;12.47;;;9.27;;
8104;SDS011;4095;48.942;9.104;2023-12-28T01:25:56;12.13;;;9.23;;
8104;SDS011;4095;48.942;9.104;2023-12-28T01:28:22;12.17;;;9.20;;
8104;SDS011;4095;48.942;9.104;2023-12-28T01:30:48;11.97;;;8.77;;
8104;SDS011;4095;48.942;9.104;2023-12-28T01:33:13;12.83;;;8.87;;
8104;SDS011;4095;48.942;9.104;2023-12-28T01:35:39;11.97;;;9.17;;
8104;SDS011;4095;48.942;9.104;2023-12-28T01:38:06;14.83;;;10.67;;
8104;SDS011;4095;48.942;9.104;2023-12-28T01:40:31;14.47;;;10.07;;
8104;SDS011;4095;48.942;9.104;2023-12-28T01:42:57;14.90;;;10.17;;
8104;SDS011;4095;48.942;9.104;2023-12-28T01:45:23;13.70;;;10.23;;
8104;SDS011;4095;48.942;9.104;2023-12-28T01:47:48;14.17;;;10.00;;
8104;SDS011;4095;48.942;9.104;2023-12-28T01:50:15;14.87;;;9.23;;
8104;SDS011;4095;48.942;9.104;2023-12-28T01:52:41;15.73;;;10.00;;
8104;SDS011;4095;48.942;9.104;2023-12-28T01:55:07;11.90;;;9.00;;
8104;SDS011;4095;48.942;9.104;2023-12-28T01:57:33;10.43;;;8.17;;
8104;SDS011;4095;48.942;9.104;2023-12-28T01:59:59;11.97;;;7.47;;
8104;SDS011;4095;48.942;9.104;2023-12-28T02:02:26;9.90;;;7.87;;
8104;SDS011;4095;48.942;9.104;2023-12-28T02:04:52;10.33;;;7.43;;
8104;SDS011;4095;48.942;9.104;2023-12-28T02:07:19;9.80;;;7.60;;
8104;SDS011;4095;48.942;9.104;2023-12-28T02:09:46;11.50;;;7.67;;
8104;SDS011;4095;48.942;9.104;2023-12-28T02:12:11;10.23;;;7.40;;
8104;SDS011;4095;48.942;9.104;2023-12-28T02:14:37;10.73;;;7.63;;
8104;SDS011;4095;48.942;9.104;2023-12-28T02:17:06;9.67;;;7.17;;
8104;SDS011;4095;48.942;9.104;2023-12-28T02:22:12;11.17;;;8.10;;
8104;SDS011;4095;48.942;9.104;2023-12-28T02:27:42;9.00;;;7.73;;
8104;SDS011;4095;48.942;9.104;2023-12-28T02:30:09;8.03;;;6.77;;
8104;SDS011;4095;48.942;9.104;2023-12-28T02:35:33;9.30;;;6.87;;
8104;SDS011;4095;48.942;9.104;2023-12-28T02:38:11;9.37;;;7.30;;
8104;SDS011;4095;48.942;9.104;2023-12-28T02:40:40;10.30;;;7.60;;
8104;SDS011;4095;48.942;9.104;2023-12-28T02:43:08;10.03;;;7.53;;
8104;SDS011;4095;48.942;9.104;2023-12-28T02:45:34;11.63;;;7.80;;
8104;SDS011;4095;48.942;9.104;2023-12-28T02:48:01;11.93;;;8.50;;
8104;SDS011;4095;48.942;9.104;2023-12-28T02:50:27;10.00;;;8.20;;
8104;SDS011;4095;48.942;9.104;2023-12-28T02:52:55;11.50;;;8.47;;
8104;SDS011;4095;48.942;9.104;2023-12-28T02:55:20;10.90;;;8.00;;
8104;SDS011;4095;48.942;9.104;2023-12-28T02:57:46;12.20;;;9.17;;
8104;SDS011;4095;48.942;9.104;2023-12-28T03:00:12;13.03;;;9.07;;
8104;SDS011;4095;48.942;9.104;2023-12-28T03:02:38;11.50;;;8.80;;
8104;SDS011;4095;48.942;9.104;2023-12-28T03:05:04;10.60;;;8.10;;
8104;SDS011;4095;48.942;9.104;2023-12-28T03:07:31;13.40;;;8.33;;
8104;SDS011;4095;48.942;9.104;2023-12-28T03:09:57;11.23;;;8.10;;
8104;SDS011;4095;48.942;9.104;2023-12-28T03:12:22;10.87;;;7.80;;
8104;SDS011;4095;48.942;9.104;2023-12-28T03:14:48;11.73;;;7.87;;
8104;SDS011;4095;48.942;9.104;2023-12-28T03:17:14;9.87;;;7.80;;
8104;SDS011;4095;48.942;9.104;2023-12-28T03:19:39;12.93;;;8.80;;
8104;SDS011;4095;48.942;9.104;2023-12-28T03:22:05;10.87;;;7.93;;
8104;SDS011;4095;48.942;9.104;2023-12-28T03:24:31;10.47;;;7.37;;
8104;SDS011;4095;48.942;9.104;2023-12-28T03:26:56;10.33;;;8.17;;
8104;SDS011;4095;48.942;9.104;2023-12-28T03:29:22;8.50;;;7.53;;
8104;SDS011;4095;48.942;9.104;2023-12-28T03:31:47;11.83;;;7.50;;
8104;SDS011;4095;48.942;9.104;2023-12-28T03:34:13;9.83;;;7.83;;
8104;SDS011;4095;48.942;9.104;2023-12-28T03:36:39;10.27;;;7.90;;
8104;SDS011;4095;48.942;9.104;2023-12-28T03:39:05;10.07;;;7.70;;
8104;SDS011;4095;48.942;9.104;2023-12-28T03:41:30;9.63;;;7.83;;
8104;SDS011;4095;48.942;9.104;2023-12-28T03:43:56;10.90;;;7.63;;
8104;SDS011;4095;48.942;9.104;2023-12-28T03:46:22;10.27;;;8.20;;
8104;SDS011;4095;48.942;9.104;2023-12-28T03:48:47;10.03;;;7.70;;
8104;SDS011;4095;48.942;9.104;2023-12-28T03:51:13;10.40;;;7.73;;
8104;SDS011;4095;48.942;9.104;2023-12-28T03:53:42;9.83;;;7.40;;
8104;SDS011;4095;48.942;9.104;2023-12-28T03:56:17;11.47;;;7.77;;
8104;SDS011;4095;48.942;9.104;2023-12-28T03:58:49;11.87;;;7.73;;
8104;SDS011;4095;48.942;9.104;2023-12-28T04:01:16;12.03;;;7.70;;
8104;SDS011;4095;48.942;9.104;2023-12-28T04:03:45;9.67;;;7.00;;
8104;SDS011;4095;48.942;9.104;2023-12-28T04:06:11;9.37;;;7.47;;
8104;SDS011;4095;48.942;9.104;2023-12-28T04:08:40;10.17;;;7.40;;
8104;SDS011;4095;48.942;9.104;2023-12-28T04:11:06;8.30;;;6.60;;
8104;SDS011;4095;48.942;9.104;2023-12-28T04:13:32;9.20;;;6.47;;
8104;SDS011;4095;48.942;9.104;2023-12-28T04:15:58;10.00;;;7.40;;
8104;SDS011;4095;48.942;9.104;2023-12-28T04:18:23;10.33;;;6.97;;
8104;SDS011;4095;48.942;9.104;2023-12-28T04:20:49;11.10;;;8.37;;
8104;SDS011;4095;48.942;9.104;2023-12-28T04:23:15;12.70;;;9.07;;
8104;SDS011;4095;48.942;9.104;2023-12-28T04:25:41;11.40;;;8.67;;
8104;SDS011;4095;48.942;9.104;2023-12-28T04:28:06;11.20;;;7.70;;
8104;SDS011;4095;48.942;9.104;2023-12-28T04:30:32;11.80;;;7.60;;
8104;SDS011;4095;48.942;9.104;2023-12-28T04:32:58;11.10;;;7.53;;
8104;SDS011;4095;48.942;9.104;2023-12-28T04:35:24;9.97;;;7.33;;
8104;SDS011;4095;48.942;9.104;2023-12-28T04:37:50;8.50;;;7.30;;
8104;SDS011;4095;48.942;9.104;2023-12-28T04:40:16;8.67;;;6.53;;
8104;SDS011;4095;48.942;9.104;2023-12-28T04:42:42;8.23;;;6.70;;
8104;SDS011;4095;48.942;9.104;2023-12-28T04:45:08;10.00;;;6.83;;
8104;SDS011;4095;48.942;9.104;2023-12-28T04:47:35;9.73;;;7.10;;
8104;SDS011;4095;48.942;9.104;2023-12-28T04:50:00;11.93;;;8.33;;
8104;SDS011;4095;48.942;9.104;2023-12-28T04:52:27;9.93;;;7.10;;
8104;SDS011;4095;48.942;9.104;2023-12-28T04:54:53;8.87;;;6.93;;
8104;SDS011;4095;48.942;9.104;2023-12-28T04:57:19;11.03;;;7.87;;
8104;SDS011;4095;48.942;9.104;2023-12-28T04:59:44;10.20;;;7.17;;
8104;SDS011;4095;48.942;9.104;2023-12-28T05:02:10;10.17;;;7.10;;
8104;SDS011;4095;48.942;9.104;2023-12-28T05:04:38;9.30;;;7.20;;
8104;SDS011;4095;48.942;9.104;2023-12-28T05:07:04;10.43;;;7.30;;
8104;SDS011;4095;48.942;9.104;2023-12-28T05:09:30;8.70;;;7.20;;
8104;SDS011;4095;48.942;9.104;2023-12-28T05:11:56;10.57;;;7.83;;
8104;SDS011;4095;48.942;9.104;2023-12-28T05:14:22;13.30;;;9.87;;
8104;SDS011;4095;48.942;9.104;2023-12-28T05:16:47;23.53;;;13.53;;
8104;SDS011;4095;48.942;9.104;2023-12-28T05:19:13;17.87;;;13.37;;
8104;SDS011;4095;48.942;9.104;2023-12-28T05:21:39;17.17;;;12.50;;
8104;SDS011;4095;48.942;9.104;2023-12-28T05:24:04;14.33;;;11.07;;
8104;SDS011;4095;48.942;9.104;2023-12-28T05:26:30;16.20;;;11.17;;
8104;SDS011;4095;48.942;9.104;2023-12-28T05:28:56;17.03;;;12.10;;
8104;SDS011;4095;48.942;9.104;2023-12-28T05:31:21;13.20;;;8.83;;
8104;SDS011;4095;48.942;9.104;2023-12-28T05:33:47;9.87;;;7.70;;
8104;SDS011;4095;48.942;9.104;2023-12-28T05:36:13;9.80;;;7.23;;
8104;SDS011;4095;48.942;9.104;2023-12-28T05:38:38;10.00;;;7.57;;
8104;SDS011;4095;48.942;9.104;2023-12-28T05:41:04;11.10;;;8.20;;
8104;SDS011;4095;48.942;9.104;2023-12-28T05:43:29;10.17;;;8.40;;
8104;SDS011;4095;48.942;9.104;2023-12-28T05:45:55;10.30;;;7.90;;
8104;SDS011;4095;48.942;9.104;2023-12-28T05:48:21;10.90;;;8.33;;
8104;SDS011;4095;48.942;9.104;2023-12-28T05:50:46;10.37;;;7.87;;
8104;SDS011;4095;48.942;9.104;2023-12-28T05:53:12;10.07;;;7.60;;
8104;SDS011;4095;48.942;9.104;2023-12-28T05:55:42;9.07;;;7.60;;
8104;SDS011;4095;48.942;9.104;2023-12-28T05:58:08;8.40;;;7.27;;
8104;SDS011;4095;48.942;9.104;2023-12-28T06:00:34;11.17;;;8.23;;
8104;SDS011;4095;48.942;9.104;2023-12-28T06:03:01;9.90;;;7.97;;
8104;SDS011;4095;48.942;9.104;2023-12-28T06:05:27;12.17;;;8.70;;
8104;SDS011;4095;48.942;9.104;2023-12-28T06:07:53;9.03;;;7.73;;
8104;SDS011;4095;48.942;9.104;2023-12-28T06:10:19;8.90;;;8.00;;
8104;SDS011;4095;48.942;9.104;2023-12-28T06:12:45;10.97;;;7.90;;
8104;SDS011;4095;48.942;9.104;2023-12-28T06:15:10;9.83;;;7.77;;
8104;SDS011;4095;48.942;9.104;2023-12-28T06:17:36;8.37;;;7.23;;
8104;SDS011;4095;48.942;9.104;2023-12-28T06:20:02;10.60;;;6.93;;
8104;SDS011;4095;48.942;9.104;2023-12-28T06:22:28;10.03;;;7.13;;
8104;SDS011;4095;48.942;9.104;2023-12-28T06:24:56;7.90;;;7.10;;
8104;SDS011;4095;48.942;9.104;2023-12-28T06:27:22;10.53;;;7.10;;
8104;SDS011;4095;48.942;9.104;2023-12-28T06:29:51;8.73;;;6.77;;
8104;SDS011;4095;48.942;9.104;2023-12-28T06:32:16;8.50;;;6.97;;
8104;SDS011;4095;48.942;9.104;2023-12-28T06:34:42;7.73;;;6.73;;
8104;SDS011;4095;48.942;9.104;2023-12-28T06:37:07;8.73;;;6.40;;
8104;SDS011;4095;48.942;9.104;2023-12-28T06:39:33;8.40;;;6.53;;
8104;SDS011;4095;48.942;9.104;2023-12-28T06:41:58;7.40;;;6.13;;
8104;SDS011;4095;48.942;9.104;2023-12-28T06:44:24;7.47;;;6.10;;
8104;SDS011;4095;48.942;9.104;2023-12-28T06:46:50;7.37;;;6.47;;
8104;SDS011;4095;48.942;9.104;2023-12-28T06:49:15;8.90;;;6.83;;
8104;SDS011;4095;48.942;9.104;2023-12-28T06:51:41;7.13;;;6.27;;
8104;SDS011;4095;48.942;9.104;2023-12-28T06:54:08;6.53;;;5.83;;
8104;SDS011;4095;48.942;9.104;2023-12-28T06:56:34;8.37;;;5.33;;
8104;SDS011;4095;48.942;9.104;2023-12-28T06:59:00;7.77;;;5.83;;
8104;SDS011;4095;48.942;9.104;2023-12-28T07:01:25;6.97;;;5.50;;
8104;SDS011;4095;48.942;9.104;2023-12-28T07:03:51;7.50;;;5.97;;
8104;SDS011;4095;48.942;9.104;2023-12-28T07:06:17;7.37;;;5.40;;
8104;SDS011;4095;48.942;9.104;2023-12-28T07:08:42;8.03;;;5.57;;
8104;SDS011;4095;48.942;9.104;2023-12-28T07:11:11;7.70;;;5.10;;
8104;SDS011;4095;48.942;9.104;2023-12-28T07:13:37;6.00;;;5.23;;
8104;SDS011;4095;48.942;9.104;2023-12-28T07:16:03;6.60;;;5.30;;
8104;SDS011;4095;48.942;9.104;2023-12-28T07:18:29;8.27;;;5.10;;
8104;SDS011;4095;48.942;9.104;2023-12-28T07:20:54;6.00;;;4.67;;
8104;SDS011;4095;48.942;9.104;2023-12-28T07:23:20;7.67;;;5.57;;
8104;SDS011;4095;48.942;9.104;2023-12-28T07:25:46;7.00;;;5.50;;
8104;SDS011;4095;48.942;9.104;2023-12-28T07:28:11;8.00;;;5.07;;
8104;SDS011;4095;48.942;9.104;2023-12-28T07:30:37;6.97;;;5.17;;
8104;SDS011;4095;48.942;9.104;2023-12-28T07:33:03;6.87;;;5.07;;
8104;SDS011;4095;48.942;9.104;2023-12-28T07:35:29;5.83;;;4.73;;
8104;SDS011;4095;48.942;9.104;2023-12-28T07:37:54;7.03;;;4.80;;
8104;SDS011;4095;48.942;9.104;2023-12-28T07:40:20;6.10;;;4.57;;
8104;SDS011;4095;48.942;9.104;2023-12-28T07:42:46;6.23;;;4.67;;
8104;SDS011;4095;48.942;9.104;2023-12-28T07:45:11;5.90;;;4.80;;
8104;SDS011;4095;48.942;9.104;2023-12-28T07:47:37;6.57;;;5.10;;
8104;SDS011;4095;48.942;9.104;2023-12-28T07:50:02;7.43;;;4.83;;
8104;SDS011;4095;48.942;9.104;2023-12-28T07:52:29;4.97;;;4.47;;
8104;SDS011;4095;48.942;9.104;2023-12-28T07:54:54;6.83;;;4.20;;
8104;SDS011;4095;48.942;9.104;2023-12-28T07:57:20;5.83;;;4.67;;
8104;SDS011;4095;48.942;9.104;2023-12-28T07:59:46;6.30;;;4.50;;
8104;SDS011;4095;48.942;9.104;2023-12-28T08:02:12;5.50;;;4.47;;
8104;SDS011;4095;48.942;9.104;2023-12-28T08:04:37;5.40;;;4.50;;
8104;SDS011;4095;48.942;9.104;2023-12-28T08:07:03;7.03;;;4.70;;
8104;SDS011;4095;48.942;9.104;2023-12-28T08:09:29;5.70;;;4.40;;
8104;SDS011;4095;48.942;9.104;2023-12-28T08:11:55;6.07;;;4.30;;
8104;SDS011;4095;48.942;9.104;2023-12-28T08:14:20;7.07;;;4.27;;
8104;SDS011;4095;48.942;9.104;2023-12-28T08:16:46;5.67;;;4.13;;
8104;SDS011;4095;48.942;9.104;2023-12-28T08:19:12;6.00;;;4.47;;
8104;SDS011;4095;48.942;9.104;2023-12-28T08:21:38;6.77;;;4.33;;
8104;SDS011;4095;48.942;9.104;2023-12-28T08:24:03;5.17;;;4.00;;
8104;SDS011;4095;48.942;9.104;2023-12-28T08:26:29;4.27;;;3.80;;
8104;SDS011;4095;48.942;9.104;2023-12-28T08:28:55;6.03;;;4.20;;
8104;SDS011;4095;48.942;9.104;2023-12-28T08:31:21;4.90;;;4.03;;
8104;SDS011;4095;48.942;9.104;2023-12-28T08:33:46;7.93;;;6.33;;
8104;SDS011;4095;48.942;9.104;2023-12-28T08:36:12;17.03;;;13.07;;
8104;SDS011;4095;48.942;9.104;2023-12-28T08:38:38;16.57;;;13.17;;
8104;SDS011;4095;48.942;9.104;2023-12-28T08:41:03;18.03;;;13.83;;
8104;SDS011;4095;48.942;9.104;2023-12-28T08:43:33;13.30;;;10.47;;
8104;SDS011;4095;48.942;9.104;2023-12-28T08:46:01;9.87;;;8.30;;
8104;SDS011;4095;48.942;9.104;2023-12-28T08:48:26;10.47;;;8.53;;
8104;SDS011;4095;48.942;9.104;2023-12-28T08:50:52;8.77;;;7.87;;
8104;SDS011;4095;48.942;9.104;2023-12-28T08:53:17;10.27;;;7.97;;
8104;SDS011;4095;48.942;9.104;2023-12-28T08:55:43;10.53;;;7.70;;
8104;SDS011;4095;48.942;9.104;2023-12-28T08:58:09;11.30;;;8.43;;
8104;SDS011;4095;48.942;9.104;2023-12-28T09:00:34;13.73;;;10.60;;
8104;SDS011;4095;48.942;9.104;2023-12-28T09:03:00;11.57;;;9.93;;
8104;SDS011;4095;48.942;9.104;2023-12-28T09:05:25;9.97;;;7.60;;
8104;SDS011;4095;48.942;9.104;2023-12-28T09:07:51;8.27;;;7.20;;
8104;SDS011;4095;48.942;9.104;2023-12-28T09:10:16;9.80;;;8.17;;
8104;SDS011;4095;48.942;9.104;2023-12-28T09:12:42;8.80;;;6.80;;
8104;SDS011;4095;48.942;9.104;2023-12-28T09:15:08;8.17;;;6.50;;
8104;SDS011;4095;48.942;9.104;2023-12-28T09:17:34;10.30;;;7.20;;
8104;SDS011;4095;48.942;9.104;2023-12-28T09:20:00;7.47;;;6.37;;
8104;SDS011;4095;48.942;9.104;2023-12-28T09:22:29;6.57;;;5.80;;
8104;SDS011;4095;48.942;9.104;2023-12-28T09:24:55;6.60;;;5.87;;
8104;SDS011;4095;48.942;9.104;2023-12-28T09:27:20;10.53;;;7.87;;
8104;SDS011;4095;48.942;9.104;2023-12-28T09:29:46;13.63;;;10.30;;
8104;SDS011;4095;48.942;9.104;2023-12-28T09:32:11;13.07;;;8.93;;
8104;SDS011;4095;48.942;9.104;2023-12-28T09:34:37;9.30;;;7.73;;
8104;SDS011;4095;48.942;9.104;2023-12-28T09:37:02;11.07;;;8.90;;
8104;SDS011;4095;48.942;9.104;2023-12-28T09:39:28;9.43;;;7.60;;
8104;SDS011;4095;48.942;9.104;2023-12-28T09:42:03;9.87;;;7.73;;
8104;SDS011;4095;48.942;9.104;2023-12-28T09:44:31;10.07;;;7.53;;
8104;SDS011;4095;48.942;9.104;2023-12-28T09:46:58;8.73;;;6.80;;
8104;SDS011;4095;48.942;9.104;2023-12-28T09:49:27;7.37;;;6.10;;
8104;SDS011;4095;48.942;9.104;2023-12-28T09:51:53;6.97;;;5.70;;
8104;SDS011;4095;48.942;9.104;2023-12-28T09:54:19;8.43;;;5.90;;
8104;SDS011;4095;48.942;9.104;2023-12-28T09:56:44;6.77;;;5.13;;
8104;SDS011;4095;48.942;9.104;2023-12-28T09:59:10;6.17;;;4.97;;
8104;SDS011;4095;48.942;9.104;2023-12-28T10:01:36;6.90;;;5.37;;
8104;SDS011;4095;48.942;9.104;2023-12-28T10:04:02;6.80;;;5.20;;
8104;SDS011;4095;48.942;9.104;2023-12-28T10:06:28;7.57;;;6.30;;
8104;SDS011;4095;48.942;9.104;2023-12-28T10:08:54;8.17;;;6.43;;
8104;SDS011;4095;48.942;9.104;2023-12-28T10:11:21;8.50;;;5.20;;
8104;SDS011;4095;48.942;9.104;2023-12-28T10:13:48;5.57;;;4.47;;
8104;SDS011;4095;48.942;9.104;2023-12-28T10:16:15;6.23;;;4.87;;
8104;SDS011;4095;48.942;9.104;2023-12-28T10:18:41;6.70;;;4.67;;
8104;SDS011;4095;48.942;9.104;2023-12-28T10:21:10;6.03;;;4.47;;
8104;SDS011;4095;48.942;9.104;2023-12-28T10:23:37;5.77;;;4.30;;
8104;SDS011;4095;48.942;9.104;2023-12-28T10:26:04;6.57;;;4.20;;
8104;SDS011;4095;48.942;9.104;2023-12-28T10:28:40;6.93;;;4.83;;
8104;SDS011;4095;48.942;9.104;2023-12-28T10:31:05;5.10;;;4.50;;
8104;SDS011;4095;48.942;9.104;2023-12-28T10:33:36;6.93;;;4.77;;
8104;SDS011;4095;48.942;9.104;2023-12-28T10:36:05;5.20;;;4.20;;
8104;SDS011;4095;48.942;9.104;2023-12-28T10:38:34;5.67;;;4.47;;
8104;SDS011;4095;48.942;9.104;2023-12-28T10:41:01;6.03;;;4.73;;
8104;SDS011;4095;48.942;9.104;2023-12-28T10:44:17;4.70;;;4.20;;
8104;SDS011;4095;48.942;9.104;2023-12-28T10:46:30;5.13;;;4.43;;
8104;SDS011;4095;48.942;9.104;2023-12-28T10:49:10;4.83;;;4.30;;
8104;SDS011;4095;48.942;9.104;2023-12-28T10:51:40;5.30;;;4.63;;
8104;SDS011;4095;48.942;9.104;2023-12-28T10:56:49;5.33;;;4.37;;
8104;SDS011;4095;48.942;9.104;2023-12-28T11:02:02;5.57;;;4.13;;
8104;SDS011;4095;48.942;9.104;2023-12-28T11:04:34;4.70;;;3.93;;
8104;SDS011;4095;48.942;9.104;2023-12-28T11:07:09;5.13;;;4.20;;
8104;SDS011;4095;48.942;9.104;2023-12-28T11:09:37;6.33;;;4.67;;
8104;SDS011;4095;48.942;9.104;2023-12-28T11:12:07;6.93;;;5.60;;
8104;SDS011;4095;48.942;9.104;2023-12-28T11:14:36;10.07;;;8.60;;
8104;SDS011;4095;48.942;9.104;2023-12-28T11:17:06;17.17;;;12.23;;
8104;SDS011;4095;48.942;9.104;2023-12-28T11:19:34;16.67;;;10.73;;
8104;SDS011;4095;48.942;9.104;2023-12-28T11:22:03;10.47;;;8.50;;
8104;SDS011;4095;48.942;9.104;2023-12-28T11:24:30;13.17;;;8.67;;
8104;SDS011;4095;48.942;9.104;2023-12-28T11:26:57;13.40;;;10.07;;
8104;SDS011;4095;48.942;9.104;2023-12-28T11:29:23;13.10;;;9.90;;
8104;SDS011;4095;48.942;9.104;2023-12-28T11:31:53;13.43;;;10.30;;
8104;SDS011;4095;48.942;9.104;2023-12-28T11:34:24;11.10;;;9.50;;
8104;SDS011;4095;48.942;9.104;2023-12-28T11:36:51;12.27;;;9.43;;
8104;SDS011;4095;48.942;9.104;2023-12-28T11:39:20;11.50;;;8.93;;
8104;SDS011;4095;48.942;9.104;2023-12-28T11:41:50;12.60;;;8.07;;
8104;SDS011;4095;48.942;9.104;2023-12-28T11:44:15;8.13;;;6.70;;
8104;SDS011;4095;48.942;9.104;2023-12-28T11:46:42;8.30;;;6.70;;
8104;SDS011;4095;48.942;9.104;2023-12-28T11:49:08;8.87;;;6.77;;
8104;SDS011;4095;48.942;9.104;2023-12-28T11:51:35;7.70;;;6.80;;
8104;SDS011;4095;48.942;9.104;2023-12-28T11:54:02;7.97;;;7.00;;
8104;SDS011;4095;48.942;9.104;2023-12-28T11:56:29;8.77;;;7.30;;
8104;SDS011;4095;48.942;9.104;2023-12-28T11:58:55;9.03;;;7.07;;
8104;SDS011;4095;48.942;9.104;2023-12-28T12:01:20;8.23;;;6.30;;
8104;SDS011;4095;48.942;9.104;2023-12-28T12:03:47;6.53;;;5.63;;
8104;SDS011;4095;48.942;9.104;2023-12-28T12:06:14;6.47;;;5.73;;
8104;SDS011;4095;48.942;9.104;2023-12-28T12:08:39;6.83;;;5.53;;
8104;SDS011;4095;48.942;9.104;2023-12-28T12:11:05;6.53;;;5.17;;
8104;SDS011;4095;48.942;9.104;2023-12-28T12:13:32;7.37;;;5.40;;
8104;SDS011;4095;48.942;9.104;2023-12-28T12:15:58;7.03;;;5.37;;
8104;SDS011;4095;48.942;9.104;2023-12-28T12:18:25;7.93;;;5.80;;
8104;SDS011;4095;48.942;9.104;2023-12-28T12:20:51;8.97;;;5.60;;
8104;SDS011;4095;48.942;9.104;2023-12-28T12:23:17;7.07;;;5.93;;
8104;SDS011;4095;48.942;9.104;2023-12-28T12:25:42;6.13;;;5.37;;
8104;SDS011;4095;48.942;9.104;2023-12-28T12:28:10;6.83;;;5.30;;
8104;SDS011;4095;48.942;9.104;2023-12-28T12:30:36;6.13;;;4.90;;
8104;SDS011;4095;48.942;9.104;2023-12-28T12:33:02;5.77;;;5.00;;
8104;SDS011;4095;48.942;9.104;2023-12-28T12:35:28;6.73;;;4.90;;
8104;SDS011;4095;48.942;9.104;2023-12-28T12:37:53;6.47;;;4.70;;
8104;SDS011;4095;48.942;9.104;2023-12-28T12:40:19;5.87;;;5.37;;
8104;SDS011;4095;48.942;9.104;2023-12-28T12:42:53;6.23;;;5.10;;
8104;SDS011;4095;48.942;9.104;2023-12-28T12:45:19;5.77;;;4.20;;
8104;SDS011;4095;48.942;9.104;2023-12-28T12:47:47;6.60;;;4.57;;
8104;SDS011;4095;48.942;9.104;2023-12-28T12:50:13;5.80;;;4.73;;
8104;SDS011;4095;48.942;9.104;2023-12-28T12:52:40;5.37;;;4.40;;
8104;SDS011;4095;48.942;9.104;2023-12-28T12:55:06;4.47;;;3.37;;
8104;SDS011;4095;48.942;9.104;2023-12-28T12:57:36;5.83;;;3.97;;
8104;SDS011;4095;48.942;9.104;2023-12-28T13:00:03;4.57;;;3.80;;
8104;SDS011;4095;48.942;9.104;2023-12-28T13:02:33;6.83;;;4.00;;
8104;SDS011;4095;48.942;9.104;2023-12-28T13:05:01;4.83;;;3.63;;
8104;SDS011;4095;48.942;9.104;2023-12-28T13:07:27;3.60;;;3.03;;
8104;SDS011;4095;48.942;9.104;2023-12-28T13:09:52;4.27;;;3.20;;
8104;SDS011;4095;48.942;9.104;2023-12-28T13:12:18;3.33;;;2.90;;
8104;SDS011;4095;48.942;9.104;2023-12-28T13:14:44;3.70;;;2.80;;
8104;SDS011;4095;48.942;9.104;2023-12-28T13:17:10;4.50;;;3.00;;
8104;SDS011;4095;48.942;9.104;2023-12-28T13:19:35;3.30;;;2.50;;
8104;SDS011;4095;48.942;9.104;2023-12-28T13:22:01;2.90;;;2.40;;
8104;SDS011;4095;48.942;9.104;2023-12-28T13:24:27;2.63;;;2.20;;
8104;SDS011;4095;48.942;9.104;2023-12-28T13:26:53;3.83;;;2.20;;
8104;SDS011;4095;48.942;9.104;2023-12-28T13:29:18;2.73;;;2.00;;
8104;SDS011;4095;48.942;9.104;2023-12-28T13:31:44;2.13;;;1.70;;
8104;SDS011;4095;48.942;9.104;2023-12-28T13:34:10;2.60;;;1.90;;
8104;SDS011;4095;48.942;9.104;2023-12-28T13:36:36;2.67;;;1.80;;
8104;SDS011;4095;48.942;9.104;2023-12-28T13:39:02;2.57;;;2.00;;
8104;SDS011;4095;48.942;9.104;2023-12-28T13:41:28;3.37;;;2.07;;
8104;SDS011;4095;48.942;9.104;2023-12-28T13:43:53;3.00;;;2.00;;
8104;SDS011;4095;48.942;9.104;2023-12-28T13:46:25;3.57;;;2.40;;
8104;SDS011;4095;48.942;9.104;2023-12-28T13:48:51;2.73;;;2.10;;
8104;SDS011;4095;48.942;9.104;2023-12-28T13:51:16;2.97;;;2.40;;
8104;SDS011;4095;48.942;9.104;2023-12-28T13:53:42;2.50;;;2.30;;
8104;SDS011;4095;48.942;9.104;2023-12-28T13:56:07;2.80;;;2.60;;
8104;SDS011;4095;48.942;9.104;2023-12-28T13:58:36;3.67;;;2.67;;
8104;SDS011;4095;48.942;9.104;2023-12-28T14:01:01;3.87;;;2.80;;
8104;SDS011;4095;48.942;9.104;2023-12-28T14:03:28;3.13;;;2.40;;
8104;SDS011;4095;48.942;9.104;2023-12-28T14:05:53;2.40;;;2.20;;
8104;SDS011;4095;48.942;9.104;2023-12-28T14:08:19;4.47;;;2.00;;
8104;SDS011;4095;48.942;9.104;2023-12-28T14:10:44;2.63;;;2.20;;
8104;SDS011;4095;48.942;9.104;2023-12-28T14:13:10;3.00;;;2.40;;
8104;SDS011;4095;48.942;9.104;2023-12-28T14:15:36;3.37;;;2.70;;
8104;SDS011;4095;48.942;9.104;2023-12-28T14:18:03;3.20;;;2.37;;
8104;SDS011;4095;48.942;9.104;2023-12-28T14:20:30;2.93;;;2.60;;
8104;SDS011;4095;48.942;9.104;2023-12-28T14:22:56;3.70;;;2.40;;
8104;SDS011;4095;48.942;9.104;2023-12-28T14:25:22;3.37;;;2.40;;
8104;SDS011;4095;48.942;9.104;2023-12-28T14:27:48;3.10;;;2.80;;
8104;SDS011;4095;48.942;9.104;2023-12-28T14:30:14;2.80;;;2.20;;
8104;SDS011;4095;48.942;9.104;2023-12-28T14:32:40;3.70;;;2.53;;
8104;SDS011;4095;48.942;9.104;2023-12-28T14:35:06;2.73;;;1.87;;
8104;SDS011;4095;48.942;9.104;2023-12-28T14:37:32;2.33;;;2.10;;
8104;SDS011;4095;48.942;9.104;2023-12-28T14:39:58;3.20;;;2.07;;
8104;SDS011;4095;48.942;9.104;2023-12-28T14:42:24;2.10;;;1.90;;
8104;SDS011;4095;48.942;9.104;2023-12-28T14:44:49;3.70;;;2.23;;
8104;SDS011;4095;48.942;9.104;2023-12-28T14:47:16;2.50;;;2.30;;
8104;SDS011;4095;48.942;9.104;2023-12-28T14:49:42;2.93;;;2.03;;
8104;SDS011;4095;48.942;9.104;2023-12-28T14:52:09;2.87;;;2.30;;
8104;SDS011;4095;48.942;9.104;2023-12-28T14:54:35;3.00;;;2.20;;
8104;SDS011;4095;48.942;9.104;2023-12-28T14:57:00;1.97;;;1.73;;
8104;SDS011;4095;48.942;9.104;2023-12-28T14:59:26;1.83;;;1.50;;
8104;SDS011;4095;48.942;9.104;2023-12-28T15:01:52;1.80;;;1.70;;
8104;SDS011;4095;48.942;9.104;2023-12-28T15:04:17;2.20;;;2.00;;
8104;SDS011;4095;48.942;9.104;2023-12-28T15:06:43;2.07;;;1.77;;
8104;SDS011;4095;48.942;9.104;2023-12-28T15:09:08;2.23;;;1.73;;
8104;SDS011;4095;48.942;9.104;2023-12-28T15:11:34;4.63;;;2.30;;
8104;SDS011;4095;48.942;9.104;2023-12-28T15:14:02;2.73;;;2.30;;
8104;SDS011;4095;48.942;9.104;2023-12-28T15:16:27;3.27;;;2.50;;